createdAt,value
2023-05-06T00:01:17.491Z,72.75
2023-05-06T00:04:03.214Z,68.70
2023-05-06T00:06:49.396Z,73.00
2023-05-06T00:09:34.676Z,70.97
2023-05-06T00:12:20.414Z,70.90
2023-05-06T00:15:06.261Z,76.07
2023-05-06T00:17:51.944Z,69.55
2023-05-06T00:20:37.229Z,65.65
2023-05-06T00:23:22.663Z,70.15
2023-05-06T00:26:11.116Z,63.65
2023-05-06T00:28:59.401Z,73.97
2023-05-06T00:31:45.381Z,71.18
2023-05-06T00:34:30.935Z,70.25
2023-05-06T00:37:16.426Z,72.82
2023-05-06T00:40:02.079Z,80.78
2023-05-06T00:42:47.497Z,84.07
2023-05-06T00:45:37.729Z,78.65
2023-05-06T00:48:23.386Z,79.97
2023-05-06T00:51:08.837Z,78.53
2023-05-06T00:53:54.004Z,83.47
2023-05-06T00:56:40.356Z,80.90
2023-05-06T00:59:25.868Z,87.55
2023-05-06T01:02:11.577Z,83.85
2023-05-06T01:04:57.106Z,87.25
2023-05-06T01:07:59.136Z,92.80
2023-05-06T01:10:56.740Z,95.38
2023-05-06T01:14:06.723Z,96.28
2023-05-06T01:16:57.596Z,103.53
2023-05-06T01:19:49.743Z,105.45
2023-05-06T01:22:37.631Z,98.18
2023-05-06T01:25:23.604Z,116.13
2023-05-06T01:28:11.750Z,104.63
2023-05-06T01:31:12.196Z,109.35
2023-05-06T01:34:26.229Z,107.40
2023-05-06T01:37:42.664Z,116.40
2023-05-06T01:40:30.488Z,121.55
2023-05-06T01:43:21.252Z,119.65
2023-05-06T01:46:09.615Z,129.35
2023-05-06T01:48:58.056Z,125.57
2023-05-06T01:51:50.933Z,130.45
2023-05-06T01:54:36.565Z,147.00
2023-05-06T01:57:21.934Z,120.72
2023-05-06T02:00:08.137Z,138.88
2023-05-06T02:02:57.491Z,145.77
2023-05-06T02:05:43.662Z,157.40
2023-05-06T02:08:33.021Z,158.55
2023-05-06T02:11:19.009Z,152.90
2023-05-06T02:14:06.091Z,148.23
2023-05-06T02:16:52.391Z,153.48
2023-05-06T02:19:39.648Z,141.60
2023-05-06T02:22:25.664Z,143.75
2023-05-06T02:25:11.217Z,155.85
2023-05-06T02:28:03.280Z,140.70
2023-05-06T02:30:51.412Z,163.68
2023-05-06T02:33:36.709Z,149.25
2023-05-06T02:36:22.596Z,188.95
2023-05-06T02:39:08.416Z,163.55
2023-05-06T02:41:54.312Z,158.52
2023-05-06T02:44:39.605Z,172.27
2023-05-06T02:47:24.708Z,181.65
2023-05-06T02:50:12.731Z,194.00
2023-05-06T02:52:58.511Z,207.73
2023-05-06T02:55:43.693Z,211.95
2023-05-06T02:58:29.271Z,208.98
2023-05-06T03:01:14.731Z,202.60
2023-05-06T03:03:59.903Z,208.27
2023-05-06T03:06:45.628Z,197.25
2023-05-06T03:09:34.060Z,271.58
2023-05-06T03:12:22.271Z,244.45
2023-05-06T03:15:08.700Z,235.15
2023-05-06T03:17:55.675Z,230.98
2023-05-06T03:20:41.805Z,259.00
2023-05-06T03:23:27.412Z,236.10
2023-05-06T03:26:13.641Z,241.35
2023-05-06T03:29:02.637Z,248.32
2023-05-06T03:31:51.394Z,234.48
2023-05-06T03:34:37.976Z,232.13
2023-05-06T03:37:24.017Z,243.57
2023-05-06T03:40:13.382Z,279.83
2023-05-06T03:42:58.961Z,252.90
2023-05-06T03:45:46.029Z,246.60
2023-05-06T03:48:31.542Z,230.50
2023-05-06T03:51:17.140Z,221.77
2023-05-06T03:54:03.757Z,215.02
2023-05-06T03:56:51.184Z,231.38
2023-05-06T03:59:37.040Z,217.10
2023-05-06T04:02:24.402Z,209.63
2023-05-06T04:05:10.682Z,184.70
2023-05-06T04:07:56.447Z,197.07
2023-05-06T04:10:42.258Z,180.25
2023-05-06T04:13:35.478Z,180.30
2023-05-06T04:16:29.573Z,187.30
2023-05-06T04:19:17.476Z,164.88
2023-05-06T04:22:03.748Z,154.98
2023-05-06T04:24:49.468Z,144.63
2023-05-06T04:27:37.106Z,116.90
2023-05-06T04:30:24.704Z,124.28
2023-05-06T04:33:10.244Z,124.68
2023-05-06T04:35:56.697Z,107.78
2023-05-06T04:38:43.450Z,110.03
2023-05-06T04:41:31.044Z,95.30
2023-05-06T04:44:16.793Z,88.75
2023-05-06T04:47:04.675Z,87.50
2023-05-06T04:49:52.989Z,78.97
2023-05-06T04:52:39.269Z,72.95
2023-05-06T04:55:25.338Z,68.47
2023-05-06T04:58:12.307Z,63.13
2023-05-06T05:00:58.172Z,60.42
2023-05-06T05:03:43.806Z,58.63
2023-05-06T05:06:29.380Z,55.05
2023-05-06T05:09:14.934Z,49.17
2023-05-06T05:12:03.243Z,54.58
2023-05-06T05:14:52.292Z,48.78
2023-05-06T05:17:37.847Z,42.97
2023-05-06T05:20:24.669Z,43.00
2023-05-06T05:23:10.304Z,40.85
2023-05-06T05:26:02.765Z,48.97
2023-05-06T05:28:48.471Z,41.85
2023-05-06T05:31:34.732Z,36.50
2023-05-06T05:34:20.944Z,38.35
2023-05-06T05:37:08.502Z,35.53
2023-05-06T05:39:54.283Z,34.28
2023-05-06T05:42:40.554Z,30.38
2023-05-06T05:45:34.759Z,29.77
2023-05-06T05:48:20.498Z,30.48
2023-05-06T05:51:06.202Z,30.33
2023-05-06T05:53:52.321Z,28.85
2023-05-06T05:56:39.901Z,33.05
2023-05-06T05:59:25.979Z,33.15
2023-05-06T06:02:14.044Z,33.95
2023-05-06T06:05:00.582Z,33.00
2023-05-06T06:07:46.207Z,29.35
2023-05-06T06:10:32.911Z,26.17
2023-05-06T06:13:22.188Z,31.35
2023-05-06T06:16:08.290Z,29.23
2023-05-06T06:18:54.804Z,25.35
2023-05-06T06:21:40.152Z,27.50
2023-05-06T06:24:25.864Z,28.98
2023-05-06T06:27:11.033Z,24.95
2023-05-06T06:29:56.493Z,27.48
2023-05-06T06:32:50.947Z,26.58
2023-05-06T06:35:36.449Z,20.42
2023-05-06T06:38:21.759Z,23.88
2023-05-06T06:41:12.874Z,20.65
2023-05-06T06:43:58.532Z,20.25
2023-05-06T06:46:47.329Z,21.13
2023-05-06T06:49:32.560Z,23.90
2023-05-06T06:52:19.287Z,26.75
2023-05-06T06:55:08.501Z,22.63
2023-05-06T06:57:54.052Z,21.60
2023-05-06T07:00:39.534Z,25.63
2023-05-06T07:03:24.806Z,26.58
2023-05-06T07:06:10.310Z,27.85
2023-05-06T07:08:56.292Z,31.35
2023-05-06T07:11:41.675Z,25.02
2023-05-06T07:14:32.521Z,29.42
2023-05-06T07:17:18.165Z,23.73
2023-05-06T07:20:03.852Z,28.27
2023-05-06T07:22:49.234Z,27.15
2023-05-06T07:25:35.504Z,23.20
2023-05-06T07:28:21.238Z,25.25
2023-05-06T07:31:07.243Z,23.65
2023-05-06T07:33:52.559Z,26.30
2023-05-06T07:36:41.047Z,24.52
2023-05-06T07:39:26.715Z,26.92
2023-05-06T07:42:13.209Z,22.10
2023-05-06T07:44:59.018Z,23.30
2023-05-06T07:47:44.385Z,24.80
2023-05-06T07:50:29.916Z,22.15
2023-05-06T07:53:15.148Z,23.23
2023-05-06T07:56:02.247Z,19.48
2023-05-06T07:58:49.451Z,22.92
2023-05-06T08:01:34.796Z,21.98
2023-05-06T08:04:20.615Z,30.35
2023-05-06T08:07:05.715Z,20.80
2023-05-06T08:09:51.320Z,24.30
2023-05-06T08:12:38.153Z,26.23
2023-05-06T08:15:23.783Z,22.80
2023-05-06T08:18:20.876Z,25.20
2023-05-06T08:21:08.067Z,24.10
2023-05-06T08:23:53.639Z,22.80
2023-05-06T08:26:39.224Z,25.75
2023-05-06T08:29:24.833Z,24.08
2023-05-06T08:32:16.444Z,21.63
2023-05-06T08:35:01.747Z,22.27
2023-05-06T08:37:47.367Z,23.20
2023-05-06T08:40:33.832Z,24.30
2023-05-06T08:43:21.566Z,19.65
2023-05-06T08:46:07.230Z,22.65
2023-05-06T08:48:53.339Z,21.00
2023-05-06T08:51:39.050Z,20.95
2023-05-06T08:54:27.845Z,24.98
2023-05-06T08:57:14.579Z,19.23
2023-05-06T08:59:59.814Z,21.42
2023-05-06T09:02:45.489Z,16.52
2023-05-06T09:05:31.160Z,18.98
2023-05-06T09:08:17.159Z,22.63
2023-05-06T09:11:02.873Z,15.15
2023-05-06T09:13:48.504Z,16.00
2023-05-06T09:16:33.937Z,20.70
2023-05-06T09:19:20.656Z,20.58
2023-05-06T09:22:06.439Z,20.95
2023-05-06T09:24:56.722Z,19.92
2023-05-06T09:27:46.021Z,22.30
2023-05-06T09:30:31.907Z,22.23
2023-05-06T09:33:17.410Z,22.00
2023-05-06T09:36:04.378Z,17.05
2023-05-06T09:38:50.288Z,23.55
2023-05-06T09:41:36.153Z,21.65
2023-05-06T09:44:24.137Z,21.65
2023-05-06T09:47:10.506Z,21.40
2023-05-06T09:50:01.936Z,21.15
2023-05-06T09:52:49.292Z,17.48
2023-05-06T09:55:35.359Z,23.30
2023-05-06T09:58:21.288Z,21.00
2023-05-06T10:01:09.241Z,18.27
2023-05-06T10:03:55.979Z,19.25
2023-05-06T10:06:44.223Z,21.77
2023-05-06T10:09:33.340Z,19.58
2023-05-06T10:12:20.104Z,15.77
2023-05-06T10:15:08.141Z,21.05
2023-05-06T10:17:55.286Z,21.45
2023-05-06T10:20:42.450Z,21.23
2023-05-06T10:23:37.364Z,20.52
2023-05-06T10:26:23.219Z,23.40
2023-05-06T10:29:10.384Z,24.10
2023-05-06T10:31:57.384Z,20.92
2023-05-06T10:34:51.608Z,21.08
2023-05-06T10:37:38.864Z,24.02
2023-05-06T10:40:24.847Z,19.65
2023-05-06T10:43:25.312Z,23.42
2023-05-06T10:46:17.745Z,18.63
2023-05-06T10:49:06.787Z,14.48
2023-05-06T10:52:43.874Z,17.80
2023-05-06T10:55:34.492Z,15.50
2023-05-06T10:58:22.528Z,14.88
2023-05-06T11:01:14.151Z,13.98
2023-05-06T11:04:07.185Z,15.63
2023-05-06T11:06:53.797Z,13.07
2023-05-06T11:09:58.222Z,13.00
2023-05-06T11:12:52.913Z,11.55
2023-05-06T11:15:40.684Z,12.27
2023-05-06T11:18:29.475Z,14.10
2023-05-06T11:21:17.541Z,10.18
2023-05-06T11:24:02.971Z,11.00
2023-05-06T11:26:48.543Z,11.07
2023-05-06T11:29:37.554Z,10.63
2023-05-06T11:32:28.330Z,10.75
2023-05-06T11:35:14.193Z,10.40
2023-05-06T11:37:59.536Z,10.32
2023-05-06T11:40:44.997Z,9.23
2023-05-06T11:43:30.657Z,11.57
2023-05-06T11:46:18.028Z,9.98
2023-05-06T11:49:03.399Z,12.30
2023-05-06T11:51:49.730Z,9.38
2023-05-06T11:54:38.165Z,12.82
2023-05-06T11:57:24.820Z,11.18
2023-05-06T12:00:10.669Z,15.80
2023-05-06T12:02:57.651Z,7.40
2023-05-06T12:05:43.800Z,9.52
2023-05-06T12:08:36.168Z,10.38
2023-05-06T12:11:21.782Z,10.65
2023-05-06T12:14:10.228Z,8.38
2023-05-06T12:16:56.302Z,8.73
2023-05-06T12:19:41.928Z,9.48
2023-05-06T12:22:27.356Z,9.23
2023-05-06T12:25:14.367Z,8.43
2023-05-06T12:27:59.634Z,9.20
2023-05-06T12:30:46.816Z,10.55
2023-05-06T12:33:45.125Z,9.60
2023-05-06T12:36:32.659Z,8.93
2023-05-06T12:39:20.443Z,8.07
2023-05-06T12:42:06.632Z,8.45
2023-05-06T12:44:52.085Z,7.88
2023-05-06T12:47:37.750Z,9.38
2023-05-06T12:50:44.303Z,9.07
2023-05-06T12:53:34.689Z,10.82
2023-05-06T12:56:21.816Z,8.15
2023-05-06T12:59:07.823Z,6.80
2023-05-06T13:01:53.410Z,8.43
2023-05-06T13:04:40.839Z,7.80
2023-05-06T13:07:26.419Z,12.32
2023-05-06T13:10:11.821Z,6.90
2023-05-06T13:12:57.843Z,9.30
2023-05-06T13:15:43.475Z,8.88
2023-05-06T13:18:29.562Z,11.13
2023-05-06T13:21:15.658Z,8.50
2023-05-06T13:24:00.920Z,9.30
2023-05-06T13:26:47.103Z,6.93
2023-05-06T13:29:32.358Z,8.10
2023-05-06T13:32:18.588Z,8.73
2023-05-06T13:35:07.375Z,6.93
2023-05-06T13:37:52.780Z,6.53
2023-05-06T13:40:38.187Z,7.43
2023-05-06T13:43:25.046Z,9.88
2023-05-06T13:46:10.372Z,7.55
2023-05-06T13:48:55.910Z,10.77
2023-05-06T13:51:44.007Z,6.65
2023-05-06T13:54:29.409Z,7.60
2023-05-06T13:57:14.983Z,5.43
2023-05-06T14:00:00.774Z,6.30
2023-05-06T14:02:46.175Z,4.90
2023-05-06T14:05:32.654Z,4.38
2023-05-06T14:08:18.084Z,5.47
2023-05-06T14:11:03.529Z,5.78
2023-05-06T14:13:49.189Z,5.43
2023-05-06T14:16:34.713Z,6.20
2023-05-06T14:19:20.269Z,5.82
2023-05-06T14:22:05.577Z,7.78
2023-05-06T14:24:51.047Z,5.93
2023-05-06T14:27:36.677Z,7.00
2023-05-06T14:30:22.229Z,6.95
2023-05-06T14:33:08.766Z,6.72
2023-05-06T14:35:55.043Z,6.88
2023-05-06T14:38:43.507Z,6.32
2023-05-06T14:41:29.912Z,6.95
2023-05-06T14:44:15.675Z,7.85
2023-05-06T14:47:01.569Z,9.52
2023-05-06T14:49:46.864Z,7.25
2023-05-06T14:52:32.417Z,7.15
2023-05-06T14:55:18.007Z,6.53
2023-05-06T14:58:03.803Z,5.13
2023-05-06T15:00:49.733Z,6.72
2023-05-06T15:03:36.403Z,7.88
2023-05-06T15:06:21.971Z,8.00
2023-05-06T15:09:07.441Z,7.45
2023-05-06T15:11:53.009Z,4.88
2023-05-06T15:14:41.591Z,8.60
2023-05-06T15:17:27.262Z,7.82
2023-05-06T15:20:13.493Z,7.28
2023-05-06T15:22:59.261Z,6.50
2023-05-06T15:25:44.556Z,7.28
2023-05-06T15:28:30.142Z,6.13
2023-05-06T15:31:15.741Z,4.57
2023-05-06T15:34:01.157Z,7.55
2023-05-06T15:36:54.285Z,5.63
2023-05-06T15:39:42.508Z,6.05
2023-05-06T15:42:29.468Z,7.93
2023-05-06T15:45:14.880Z,7.28
2023-05-06T15:48:00.167Z,6.55
2023-05-06T15:50:45.795Z,7.97
2023-05-06T15:53:31.119Z,7.50
2023-05-06T15:56:18.914Z,7.55
2023-05-06T15:59:06.189Z,10.00
2023-05-06T16:02:25.562Z,12.68
2023-05-06T16:04:57.372Z,8.07
2023-05-06T16:07:43.476Z,8.23
2023-05-06T16:10:35.694Z,7.97
2023-05-06T16:13:21.599Z,6.13
2023-05-06T16:16:07.412Z,6.30
2023-05-06T16:18:52.830Z,3.70
2023-05-06T16:21:38.270Z,7.93
2023-05-06T16:24:23.929Z,11.27
2023-05-06T16:27:09.534Z,5.63
2023-05-06T16:29:55.548Z,9.82
2023-05-06T16:32:41.316Z,11.60
2023-05-06T16:35:29.398Z,6.72
2023-05-06T16:38:14.618Z,8.32
2023-05-06T16:41:00.178Z,5.65
2023-05-06T16:43:45.622Z,19.77
2023-05-06T16:46:31.230Z,26.38
2023-05-06T16:49:16.716Z,25.48
2023-05-06T16:52:02.404Z,24.38
2023-05-06T16:54:47.833Z,28.50
2023-05-06T16:57:33.659Z,25.60
2023-05-06T17:00:19.659Z,27.77
2023-05-06T17:03:05.020Z,27.13
2023-05-06T17:05:50.804Z,27.27
2023-05-06T17:08:37.199Z,22.70
2023-05-06T17:11:22.551Z,15.50
2023-05-06T17:14:08.250Z,16.63
2023-05-06T17:16:53.777Z,30.42
2023-05-06T17:19:39.170Z,27.75
2023-05-06T17:22:26.483Z,39.28
2023-05-06T17:25:13.235Z,39.83
2023-05-06T17:27:58.572Z,37.65
2023-05-06T17:30:44.458Z,44.50
2023-05-06T17:33:29.736Z,44.75
2023-05-06T17:36:18.079Z,44.42
2023-05-06T17:39:07.300Z,37.67
2023-05-06T17:41:53.193Z,34.10
2023-05-06T17:44:39.846Z,28.13
2023-05-06T17:47:25.156Z,28.75
2023-05-06T17:50:11.187Z,27.20
2023-05-06T17:52:56.892Z,29.13
2023-05-06T17:55:42.276Z,30.52
2023-05-06T17:58:27.767Z,47.08
2023-05-06T18:01:14.034Z,38.22
2023-05-06T18:03:59.342Z,29.83
2023-05-06T18:06:48.888Z,26.52
2023-05-06T18:09:35.785Z,30.80
2023-05-06T18:12:21.406Z,37.03
2023-05-06T18:15:07.905Z,38.53
2023-05-06T18:17:53.777Z,38.33
2023-05-06T18:20:39.809Z,31.75
2023-05-06T18:23:26.573Z,41.00
2023-05-06T18:26:31.728Z,50.08
2023-05-06T18:29:25.294Z,48.53
2023-05-06T18:32:10.834Z,46.97
2023-05-06T18:34:56.694Z,46.15
2023-05-06T18:37:42.161Z,47.50
2023-05-06T18:40:27.752Z,50.90
2023-05-06T18:43:13.156Z,58.60
2023-05-06T18:45:58.746Z,62.25
2023-05-06T18:48:45.157Z,58.40
2023-05-06T18:51:31.940Z,57.53
2023-05-06T18:54:17.692Z,60.55
2023-05-06T18:57:03.242Z,64.88
2023-05-06T18:59:48.815Z,65.15
2023-05-06T19:02:34.542Z,67.38
2023-05-06T19:05:20.537Z,61.95
2023-05-06T19:08:07.379Z,64.63
2023-05-06T19:10:52.849Z,47.10
2023-05-06T19:13:38.523Z,51.17
2023-05-06T19:16:24.160Z,52.45
2023-05-06T19:19:09.548Z,39.58
2023-05-06T19:21:55.260Z,43.92
2023-05-06T19:24:40.998Z,43.50
2023-05-06T19:27:26.552Z,34.75
2023-05-06T19:30:15.440Z,31.50
2023-05-06T19:33:02.106Z,32.67
2023-05-06T19:35:47.404Z,29.60
2023-05-06T19:38:33.194Z,39.45
2023-05-06T19:41:18.863Z,38.45
2023-05-06T19:44:04.692Z,39.28
2023-05-06T19:46:56.207Z,47.22
2023-05-06T19:49:41.469Z,55.63
2023-05-06T19:52:30.381Z,67.72
2023-05-06T19:55:16.593Z,63.78
2023-05-06T19:58:02.229Z,66.68
2023-05-06T20:00:47.578Z,63.90
2023-05-06T20:03:33.373Z,69.80
2023-05-06T20:06:21.934Z,66.00
2023-05-06T20:09:07.392Z,65.93
2023-05-06T20:11:52.773Z,74.47
2023-05-06T20:14:38.303Z,69.97
2023-05-06T20:17:23.967Z,67.63
2023-05-06T20:20:11.255Z,59.17
2023-05-06T20:22:56.832Z,51.47
2023-05-06T20:25:43.438Z,56.42
2023-05-06T20:28:32.249Z,53.95
2023-05-06T20:31:17.826Z,54.95
2023-05-06T20:34:03.331Z,55.13
2023-05-06T20:36:49.896Z,46.75
2023-05-06T20:39:35.648Z,41.30
2023-05-06T20:42:21.028Z,38.40
2023-05-06T20:45:07.210Z,32.90
2023-05-06T20:47:55.337Z,43.47
2023-05-06T20:50:43.928Z,39.67
2023-05-06T20:53:29.288Z,44.55
2023-05-06T20:56:20.666Z,39.85
2023-05-06T20:59:05.926Z,43.10
2023-05-06T21:01:52.121Z,44.13
2023-05-06T21:04:37.564Z,49.55
2023-05-06T21:07:23.230Z,39.92
2023-05-06T21:10:10.935Z,43.55
2023-05-06T21:12:56.468Z,39.33
2023-05-06T21:15:42.034Z,46.22
2023-05-06T21:18:28.359Z,44.97
2023-05-06T21:21:13.856Z,40.67
2023-05-06T21:24:00.057Z,40.97
2023-05-06T21:26:45.420Z,44.13
2023-05-06T21:29:30.740Z,41.90
2023-05-06T21:32:15.845Z,36.58
2023-05-06T21:35:02.687Z,41.92
2023-05-06T21:37:47.816Z,39.35
2023-05-06T21:40:33.375Z,46.55
2023-05-06T21:43:19.014Z,49.47
2023-05-06T21:46:04.541Z,44.03
2023-05-06T21:48:49.787Z,50.30
2023-05-06T21:51:36.455Z,42.95
2023-05-06T21:54:21.964Z,54.80
2023-05-06T21:57:08.982Z,45.90
2023-05-06T21:59:54.642Z,60.58
2023-05-06T22:02:40.524Z,56.03
2023-05-06T22:05:26.044Z,55.28
2023-05-06T22:08:11.578Z,61.13
2023-05-06T22:10:57.918Z,59.53
2023-05-06T22:13:43.134Z,65.78
2023-05-06T22:16:29.393Z,58.70
2023-05-06T22:19:19.330Z,67.72
2023-05-06T22:22:04.445Z,64.75
2023-05-06T22:24:49.928Z,58.75
2023-05-06T22:27:35.970Z,62.53
2023-05-06T22:30:21.293Z,65.50
2023-05-06T22:33:07.267Z,67.05
2023-05-06T22:35:52.715Z,75.18
2023-05-06T22:38:38.427Z,78.85
2023-05-06T22:41:23.810Z,89.22
2023-05-06T22:44:09.312Z,82.53
2023-05-06T22:46:54.972Z,86.88
2023-05-06T22:49:40.790Z,91.93
2023-05-06T22:52:26.052Z,92.80
2023-05-06T22:55:12.069Z,89.30
2023-05-06T22:57:57.425Z,84.60
2023-05-06T23:00:47.945Z,76.53
2023-05-06T23:03:34.659Z,76.57
2023-05-06T23:06:20.827Z,75.75
2023-05-06T23:09:06.875Z,78.55
2023-05-06T23:11:52.632Z,80.88
2023-05-06T23:14:38.264Z,89.00
2023-05-06T23:17:24.224Z,86.18
2023-05-06T23:20:11.879Z,90.45
2023-05-06T23:22:57.199Z,91.25
2023-05-06T23:25:43.462Z,99.07
2023-05-06T23:28:29.066Z,89.88
2023-05-06T23:31:16.015Z,90.30
2023-05-06T23:34:02.445Z,89.28
2023-05-06T23:36:48.027Z,88.00
2023-05-06T23:39:33.629Z,85.35
2023-05-06T23:42:19.562Z,83.00
2023-05-06T23:45:05.721Z,77.63
2023-05-06T23:47:51.130Z,74.28
2023-05-06T23:50:36.704Z,76.85
2023-05-06T23:53:22.067Z,71.40
2023-05-06T23:56:07.681Z,77.30
2023-05-06T23:58:52.970Z,68.80
